Bow, United Kingdom
Current Conditions -  °F | °C
As of 12:20 PM on Monday 20 Oct 2014 (Local Time) from EGLC Reporting Station
Few Clouds Few Clouds  
Wind Chill: 63°   Ceiling: Unl
Heat Index: 63°   Visibility: 6mi
Dew Point: 48°   Wind: 17mph
Humidity: 59%   Direction: 250°WSW
Pressure: 30"   Gusts: NA
Location:  51.53°N, 0.03°W
Report Text: EGLC 201120Z 25015KT 9999 FEW029 17/09 Q1016
Loading
Personal Weather Stations






























Interactive Weather Map New forecast layout! Learn more

10-Day Weather Forecast

Advertisements
Track Severe Weather on mobile